Time;durP1;ratioP1;P1;durP2;ratioP2;P2;SDS_P1;SDS_P2;PMS_P1;PMS_P2;Temp;Humidity;BMP_temperature;BMP_pressure;BME280_temperature;BME280_humidity;BME280_pressure;Samples;Min_cycle;Max_cycle;Signal;HPM_P1;HPM_P2
2022/04/08 00:00:22;;;;;;;12.95;1.85;;;5.80;99.90;;;;;;4987950;28;20550;-85
2022/04/08 00:02:50;;;;;;;13.68;0.85;;;5.90;99.90;;;;;;4992309;28;20031;-84
2022/04/08 00:05:15;;;;;;;8.35;0.82;;;5.90;99.90;;;;;;4989500;28;20382;-86
2022/04/08 00:07:41;;;;;;;28.02;1.70;;;5.90;99.90;;;;;;4991718;28;20030;-85
2022/04/08 00:10:07;;;;;;;7.50;0.70;;;5.80;99.90;;;;;;4992880;28;20037;-84
2022/04/08 00:12:34;;;;;;;13.50;1.17;;;5.80;99.90;;;;;;4993568;28;20034;-86
2022/04/08 00:14:59;;;;;;;16.83;1.17;;;5.80;99.90;;;;;;4993765;28;20506;-86
2022/04/08 00:17:25;;;;;;;8.13;0.70;;;5.90;99.90;;;;;;4975094;28;20034;-86
2022/04/08 00:19:51;;;;;;;10.30;1.30;;;5.90;99.90;;;;;;4993691;28;20092;-86
2022/04/08 00:22:18;;;;;;;15.75;0.85;;;5.90;99.90;;;;;;4993503;28;20037;-86
2022/04/08 00:24:44;;;;;;;14.60;0.82;;;6.00;99.90;;;;;;4993522;28;20471;-86
2022/04/08 00:27:10;;;;;;;9.55;0.85;;;6.00;99.90;;;;;;4994110;28;20026;-85
2022/04/08 00:29:35;;;;;;;8.85;1.25;;;6.00;99.90;;;;;;4991413;28;20048;-86
2022/04/08 00:32:01;;;;;;;17.88;1.38;;;6.00;99.90;;;;;;4992523;28;20411;-84
2022/04/08 00:34:27;;;;;;;14.27;0.60;;;6.00;99.90;;;;;;4993939;28;20026;-85
2022/04/08 00:36:54;;;;;;;17.23;1.92;;;6.00;99.90;;;;;;4991937;28;20081;-85
2022/04/08 00:39:21;;;;;;;15.60;1.00;;;6.00;99.90;;;;;;4993978;28;20113;-86
2022/04/08 00:41:47;;;;;;;13.15;0.77;;;6.00;99.90;;;;;;4992467;28;20026;-83
2022/04/08 00:44:13;;;;;;;12.27;1.15;;;6.00;99.90;;;;;;4994005;28;20022;-86
2022/04/08 00:46:38;;;;;;;18.63;1.45;;;5.90;99.90;;;;;;4993332;28;20461;-84
2022/04/08 00:49:05;;;;;;;10.60;0.60;;;5.90;99.90;;;;;;4993559;28;20030;-86
2022/04/08 00:51:34;;;;;;;15.65;1.05;;;5.90;99.90;;;;;;4992973;28;20495;-86
2022/04/08 00:53:59;;;;;;;15.18;1.10;;;5.90;99.90;;;;;;4992263;28;20092;-86
2022/04/08 00:56:28;;;;;;;13.90;1.30;;;5.80;99.90;;;;;;4991535;28;20109;-85
2022/04/08 00:58:55;;;;;;;14.82;1.25;;;5.80;99.90;;;;;;4990420;28;20022;-84
2022/04/08 01:01:21;;;;;;;14.05;1.25;;;5.80;99.90;;;;;;4992206;28;20034;-84
2022/04/08 01:03:46;;;;;;;22.08;1.52;;;5.70;99.90;;;;;;4993655;28;20105;-84
2022/04/08 01:06:12;;;;;;;13.70;1.40;;;5.80;99.90;;;;;;4991962;28;20022;-84
2022/04/08 01:08:39;;;;;;;14.85;1.25;;;5.80;99.90;;;;;;4992901;28;20478;-83
2022/04/08 01:11:05;;;;;;;19.60;2.00;;;5.70;99.90;;;;;;4994251;28;20458;-83
2022/04/08 01:13:31;;;;;;;12.23;0.85;;;5.70;99.90;;;;;;4992639;28;20030;-83
2022/04/08 01:15:56;;;;;;;12.20;1.10;;;5.70;99.90;;;;;;4995309;28;20093;-83
2022/04/08 01:18:22;;;;;;;19.92;1.70;;;5.60;99.90;;;;;;4978734;28;20077;-83
2022/04/08 01:20:47;;;;;;;15.25;0.98;;;5.60;99.90;;;;;;4978759;28;20501;-83
2022/04/08 01:23:17;;;;;;;15.38;1.10;;;5.50;99.90;;;;;;4996390;28;20095;-83
2022/04/08 01:25:42;;;;;;;17.85;1.10;;;5.50;99.90;;;;;;4995668;28;20022;-82
2022/04/08 01:28:08;;;;;;;17.17;1.63;;;5.40;99.90;;;;;;4996383;28;20027;-83
2022/04/08 01:30:33;;;;;;;16.65;2.13;;;5.40;99.90;;;;;;4995034;28;20034;-83
2022/04/08 01:32:59;;;;;;;11.80;0.70;;;5.40;99.90;;;;;;4996689;28;20549;-82
2022/04/08 01:35:24;;;;;;;18.98;1.92;;;5.40;99.90;;;;;;4995226;28;20467;-83
2022/04/08 01:37:50;;;;;;;13.27;1.33;;;5.40;99.90;;;;;;4995530;28;20419;-83
2022/04/08 01:40:17;;;;;;;15.75;1.00;;;5.40;99.90;;;;;;4996027;28;20090;-84
2022/04/08 01:42:42;;;;;;;12.73;0.65;;;5.40;99.90;;;;;;4996236;28;20041;-84
2022/04/08 01:45:09;;;;;;;16.83;1.20;;;5.40;99.90;;;;;;4994970;28;20027;-84
2022/04/08 01:47:34;;;;;;;14.60;0.90;;;5.40;99.90;;;;;;4996336;28;20105;-83
2022/04/08 01:50:00;;;;;;;13.98;2.35;;;5.30;99.90;;;;;;4995235;28;20125;-83
2022/04/08 01:52:26;;;;;;;14.20;1.17;;;5.30;99.90;;;;;;4991606;28;20113;-83
2022/04/08 01:54:51;;;;;;;8.60;0.60;;;5.20;99.90;;;;;;4995198;28;20034;-83
2022/04/08 01:57:22;;;;;;;11.60;1.02;;;5.10;99.90;;;;;;4995167;28;20081;-85
2022/04/08 01:59:47;;;;;;;12.80;0.75;;;5.00;99.90;;;;;;4993342;28;20038;-84
2022/04/08 02:02:13;;;;;;;22.02;1.70;;;5.00;99.90;;;;;;4996214;28;20118;-85
2022/04/08 02:04:38;;;;;;;19.98;1.38;;;4.90;99.90;;;;;;4995638;28;20063;-83
2022/04/08 02:07:06;;;;;;;11.35;1.20;;;4.80;99.90;;;;;;5000144;28;20030;-85
2022/04/08 02:09:33;;;;;;;6.97;0.35;;;4.80;99.90;;;;;;4996232;28;20394;-84
2022/04/08 02:11:58;;;;;;;11.68;0.70;;;4.70;99.90;;;;;;4990950;28;20038;-85
2022/04/08 02:14:24;;;;;;;14.82;0.85;;;4.70;99.90;;;;;;4987512;28;20085;-84
2022/04/08 02:16:49;;;;;;;8.40;0.50;;;4.70;99.90;;;;;;4994617;28;20030;-84
2022/04/08 02:19:15;;;;;;;9.90;0.95;;;4.70;99.90;;;;;;4995900;28;20079;-83
2022/04/08 02:21:42;;;;;;;10.77;0.90;;;4.60;99.90;;;;;;4995698;28;20065;-84
2022/04/08 02:24:08;;;;;;;13.95;0.75;;;4.60;99.90;;;;;;4980434;28;20034;-84
2022/04/08 02:26:34;;;;;;;8.70;0.40;;;4.50;99.90;;;;;;4990956;28;20031;-84
2022/04/08 02:28:59;;;;;;;6.40;0.43;;;4.50;99.90;;;;;;4995035;28;20030;-84
2022/04/08 02:31:25;;;;;;;8.30;0.52;;;4.40;99.90;;;;;;4994645;28;20038;-84
2022/04/08 02:33:50;;;;;;;14.55;1.13;;;4.40;99.90;;;;;;4977621;28;20024;-84
2022/04/08 02:36:16;;;;;;;8.93;1.35;;;4.30;99.90;;;;;;4994740;28;20051;-84
2022/04/08 02:38:41;;;;;;;9.50;0.63;;;4.30;99.90;;;;;;4995196;28;20027;-85
2022/04/08 02:41:07;;;;;;;8.48;0.85;;;4.30;99.90;;;;;;4995023;28;20451;-84
2022/04/08 02:43:32;;;;;;;10.88;0.60;;;4.20;99.90;;;;;;4977920;28;20027;-84
2022/04/08 02:45:58;;;;;;;8.27;0.60;;;4.20;99.90;;;;;;4986130;28;20070;-84
2022/04/08 02:48:23;;;;;;;12.57;1.75;;;4.20;99.90;;;;;;4995618;28;20030;-84
2022/04/08 02:50:49;;;;;;;6.30;0.73;;;4.20;99.90;;;;;;4994455;28;20034;-84
2022/04/08 02:53:14;;;;;;;17.90;1.00;;;4.20;99.90;;;;;;4995203;28;20073;-85
2022/04/08 02:55:40;;;;;;;8.00;0.52;;;4.20;99.90;;;;;;4992251;28;20026;-84
2022/04/08 02:58:05;;;;;;;8.63;0.85;;;4.20;99.90;;;;;;4994246;28;20081;-84
2022/04/08 03:00:31;;;;;;;5.60;0.60;;;4.20;99.90;;;;;;4994542;28;20034;-83
2022/04/08 03:02:57;;;;;;;15.15;0.68;;;4.20;99.90;;;;;;4994403;28;20054;-84
2022/04/08 03:05:22;;;;;;;8.57;0.60;;;4.20;99.90;;;;;;4993734;28;20034;-83
2022/04/08 03:07:48;;;;;;;17.77;1.27;;;4.30;99.90;;;;;;4994439;28;20039;-84
2022/04/08 03:10:14;;;;;;;13.52;0.80;;;4.30;99.90;;;;;;4994455;28;20045;-84
2022/04/08 03:12:40;;;;;;;10.63;0.70;;;4.40;99.90;;;;;;4993746;28;20528;-84
2022/04/08 03:15:06;;;;;;;14.15;1.08;;;4.40;99.90;;;;;;4994777;28;20034;-84
2022/04/08 03:17:34;;;;;;;11.82;0.90;;;4.50;99.90;;;;;;4993234;28;20478;-84
2022/04/08 03:19:59;;;;;;;7.28;0.80;;;4.50;99.90;;;;;;4993937;28;20038;-84
2022/04/08 03:22:25;;;;;;;11.23;0.93;;;4.60;99.90;;;;;;4994832;28;20454;-83
2022/04/08 03:24:51;;;;;;;13.13;1.67;;;4.60;99.90;;;;;;4993292;28;20061;-83
2022/04/08 03:27:17;;;;;;;7.55;0.45;;;4.60;99.90;;;;;;4994922;28;20038;-84
2022/04/08 03:29:44;;;;;;;11.10;0.80;;;4.60;99.90;;;;;;4996557;28;20056;-83
2022/04/08 03:32:10;;;;;;;13.48;0.65;;;4.60;99.90;;;;;;4998093;28;20446;-83
2022/04/08 03:34:36;;;;;;;8.73;0.60;;;4.60;99.90;;;;;;5001535;28;20081;-83
2022/04/08 03:37:02;;;;;;;5.32;1.02;;;4.50;99.90;;;;;;5006408;28;20054;-83
2022/04/08 03:39:27;;;;;;;14.38;0.98;;;4.50;99.90;;;;;;4986719;28;20032;-83
2022/04/08 03:41:53;;;;;;;14.10;0.85;;;4.40;99.90;;;;;;4981989;28;20034;-83
2022/04/08 03:44:19;;;;;;;8.85;0.55;;;4.40;99.90;;;;;;4995882;28;20042;-83
2022/04/08 03:46:46;;;;;;;14.32;1.00;;;4.40;99.90;;;;;;4975576;28;20043;-83
2022/04/08 03:49:14;;;;;;;10.15;1.38;;;4.30;99.90;;;;;;4991282;28;20062;-84
2022/04/08 03:51:43;;;;;;;12.13;0.60;;;4.30;99.90;;;;;;4993774;28;20069;-83
2022/04/08 03:54:09;;;;;;;13.70;0.73;;;4.30;99.90;;;;;;4992949;28;20027;-83
2022/04/08 03:56:35;;;;;;;10.43;1.23;;;4.20;99.90;;;;;;4993102;28;20494;-83
2022/04/08 03:59:02;;;;;;;9.20;0.80;;;4.20;99.90;;;;;;4993900;28;20049;-84
2022/04/08 04:01:27;;;;;;;12.43;1.30;;;4.10;99.90;;;;;;4993126;28;20391;-84
2022/04/08 04:03:53;;;;;;;8.93;0.90;;;4.10;99.90;;;;;;4975495;28;20030;-85
2022/04/08 04:06:18;;;;;;;10.95;1.00;;;4.10;99.90;;;;;;4991635;28;20038;-84
2022/04/08 04:08:44;;;;;;;7.88;1.55;;;4.00;99.90;;;;;;4993928;28;20025;-84
2022/04/08 04:11:14;;;;;;;10.07;0.88;;;3.90;99.90;;;;;;4991575;28;20038;-85
2022/04/08 04:13:41;;;;;;;15.25;1.33;;;3.90;99.90;;;;;;4993265;28;20180;-84
2022/04/08 04:16:06;;;;;;;9.07;0.65;;;3.80;99.90;;;;;;4975444;28;20174;-85
2022/04/08 04:18:32;;;;;;;13.00;1.70;;;3.70;99.90;;;;;;4993894;28;20494;-84
2022/04/08 04:20:57;;;;;;;10.55;0.65;;;3.60;99.90;;;;;;4993343;28;20038;-84
2022/04/08 04:23:23;;;;;;;10.05;0.80;;;3.60;99.90;;;;;;4992929;28;20015;-85
2022/04/08 04:25:48;;;;;;;8.57;0.80;;;3.60;99.90;;;;;;4993025;28;20402;-84
2022/04/08 04:28:15;;;;;;;7.72;0.90;;;3.50;99.90;;;;;;4993382;28;20039;-84
2022/04/08 04:30:40;;;;;;;8.85;0.80;;;3.50;99.90;;;;;;4992386;28;20049;-84
2022/04/08 04:33:07;;;;;;;9.77;0.70;;;3.40;99.90;;;;;;4994444;28;20018;-86
2022/04/08 04:35:36;;;;;;;11.68;1.00;;;3.40;99.90;;;;;;4991194;28;20014;-84
2022/04/08 04:38:02;;;;;;;9.43;0.93;;;3.40;99.90;;;;;;4992020;28;20126;-85
2022/04/08 04:40:28;;;;;;;8.35;0.70;;;3.40;99.90;;;;;;4992106;28;20506;-84
2022/04/08 04:42:55;;;;;;;9.98;0.88;;;3.30;99.90;;;;;;4992145;28;20026;-84
2022/04/08 04:45:25;;;;;;;10.07;0.93;;;3.30;99.90;;;;;;4993768;28;20443;-84
2022/04/08 04:47:50;;;;;;;14.73;0.90;;;3.30;99.90;;;;;;4982351;28;20022;-85
2022/04/08 04:50:16;;;;;;;9.10;0.88;;;3.30;99.90;;;;;;4994638;28;20038;-84
2022/04/08 04:52:42;;;;;;;5.88;0.70;;;3.30;99.90;;;;;;4996597;28;20097;-84
2022/04/08 04:55:08;;;;;;;10.60;1.45;;;3.20;99.90;;;;;;4996660;28;20035;-84
2022/04/08 04:57:34;;;;;;;11.02;0.85;;;3.20;99.90;;;;;;4993350;28;20081;-84
2022/04/08 04:59:59;;;;;;;5.72;0.70;;;3.20;99.90;;;;;;4979540;28;20513;-84
2022/04/08 05:02:25;;;;;;;7.25;1.17;;;3.20;99.90;;;;;;4996432;28;20015;-84
2022/04/08 05:04:50;;;;;;;17.15;2.40;;;3.40;99.90;;;;;;4997019;28;20030;-84
2022/04/08 05:07:16;;;;;;;20.38;2.13;;;3.50;99.90;;;;;;4978269;28;20022;-84
2022/04/08 05:09:42;;;;;;;15.10;1.52;;;3.50;99.90;;;;;;4977543;28;20398;-83
2022/04/08 05:12:08;;;;;;;11.35;1.33;;;3.60;99.90;;;;;;4990751;28;20518;-85
2022/04/08 05:14:34;;;;;;;11.77;0.93;;;3.70;99.90;;;;;;4990126;28;20029;-85
2022/04/08 05:17:00;;;;;;;16.90;1.40;;;3.70;99.90;;;;;;4995978;28;20034;-85
2022/04/08 05:19:26;;;;;;;12.48;0.90;;;3.70;99.90;;;;;;4993901;28;20037;-85
2022/04/08 05:21:52;;;;;;;8.95;0.60;;;3.60;99.90;;;;;;4995192;28;20025;-85
2022/04/08 05:24:19;;;;;;;8.20;0.70;;;3.60;99.90;;;;;;4996049;28;20038;-84
2022/04/08 05:26:45;;;;;;;13.18;0.77;;;3.50;99.90;;;;;;4990478;28;20021;-83
2022/04/08 05:29:11;;;;;;;9.00;0.93;;;3.50;99.90;;;;;;4987967;28;20030;-85
2022/04/08 05:31:36;;;;;;;8.43;1.30;;;3.50;99.90;;;;;;4974759;28;20414;-85
2022/04/08 05:34:02;;;;;;;12.68;1.15;;;3.40;99.90;;;;;;4988678;28;20098;-85
2022/04/08 05:36:27;;;;;;;13.45;0.98;;;3.40;99.90;;;;;;4993204;28;20410;-84
2022/04/08 05:38:53;;;;;;;19.17;1.42;;;3.40;99.90;;;;;;4993502;28;20040;-84
2022/04/08 05:41:19;;;;;;;8.63;0.90;;;3.40;99.90;;;;;;4989597;28;20397;-84
2022/04/08 05:43:45;;;;;;;8.27;1.30;;;3.50;99.90;;;;;;4989624;28;20022;-81
2022/04/08 05:46:11;;;;;;;11.45;1.10;;;3.50;99.90;;;;;;4991240;28;20026;-83
2022/04/08 05:48:37;;;;;;;9.45;1.02;;;3.60;99.90;;;;;;4990310;28;20367;-82
2022/04/08 05:51:03;;;;;;;9.55;1.13;;;3.60;99.90;;;;;;4992323;28;20075;-83
2022/04/08 05:53:28;;;;;;;8.95;1.05;;;3.70;99.90;;;;;;4988492;28;20030;-82
2022/04/08 05:55:58;;;;;;;10.70;1.17;;;3.80;99.90;;;;;;4970961;28;20121;-83
2022/04/08 05:58:24;;;;;;;9.10;1.20;;;4.00;99.90;;;;;;4993467;28;20058;-82
2022/04/08 06:00:50;;;;;;;12.77;1.45;;;4.10;99.90;;;;;;4976432;28;20073;-82
2022/04/08 06:03:16;;;;;;;8.77;1.60;;;4.10;99.90;;;;;;4992378;28;20564;-82
2022/04/08 06:05:41;;;;;;;6.43;1.45;;;4.20;99.90;;;;;;4988022;28;20031;-82
2022/04/08 06:08:07;;;;;;;9.55;1.10;;;4.20;99.90;;;;;;4993809;28;20570;-82
2022/04/08 06:10:33;;;;;;;5.53;1.35;;;4.30;99.90;;;;;;4995522;28;20121;-82
2022/04/08 06:12:58;;;;;;;9.95;2.00;;;4.30;99.90;;;;;;4992774;28;20042;-82
2022/04/08 06:15:27;;;;;;;9.00;1.33;;;4.30;99.90;;;;;;4994312;28;20026;-82
2022/04/08 06:17:54;;;;;;;7.78;1.00;;;4.50;99.90;;;;;;4986297;28;20110;-82
2022/04/08 06:20:21;;;;;;;10.82;1.60;;;4.50;99.90;;;;;;4995609;28;20065;-82
2022/04/08 06:22:47;;;;;;;11.95;2.22;;;4.50;99.90;;;;;;4995129;28;20394;-80
2022/04/08 06:25:18;;;;;;;7.30;1.20;;;4.60;99.90;;;;;;4994964;28;20033;-81
2022/04/08 06:27:47;;;;;;;6.93;1.30;;;4.60;99.90;;;;;;4992283;28;20129;-83
2022/04/08 06:30:14;;;;;;;8.18;1.50;;;4.60;99.90;;;;;;4978408;28;20027;-82
2022/04/08 06:32:42;;;;;;;8.95;1.35;;;4.70;99.90;;;;;;4990567;28;20402;-81
2022/04/08 06:35:08;;;;;;;6.47;1.33;;;4.70;99.90;;;;;;4994956;28;20089;-82
2022/04/08 06:37:34;;;;;;;10.77;1.55;;;4.80;99.90;;;;;;4994552;28;20758;-83
2022/04/08 06:40:09;;;;;;;11.35;1.40;;;4.90;99.90;;;;;;4991690;28;20033;-82
2022/04/08 06:42:34;;;;;;;8.20;2.05;;;5.00;99.90;;;;;;4992356;28;20085;-83
2022/04/08 06:45:00;;;;;;;7.95;1.42;;;5.00;99.90;;;;;;4972491;28;20030;-82
2022/04/08 06:47:26;;;;;;;16.65;1.80;;;5.10;99.90;;;;;;4997913;28;20065;-81
2022/04/08 06:49:52;;;;;;;8.82;1.55;;;5.20;99.90;;;;;;4992958;28;20019;-82
2022/04/08 06:52:17;;;;;;;17.02;1.63;;;5.30;99.90;;;;;;4986163;28;20038;-80
2022/04/08 06:54:43;;;;;;;35.65;1.98;;;5.30;99.90;;;;;;4988542;28;20085;-80
2022/04/08 06:57:09;;;;;;;8.40;0.85;;;5.50;99.90;;;;;;4995349;28;20104;-81
2022/04/08 06:59:35;;;;;;;7.68;1.45;;;5.60;99.90;;;;;;4991993;28;20023;-81
2022/04/08 07:02:02;;;;;;;8.23;0.98;;;5.70;99.90;;;;;;4983671;28;20393;-81
2022/04/08 07:04:27;;;;;;;6.10;1.13;;;5.70;99.90;;;;;;4983720;28;20022;-81
2022/04/08 07:06:53;;;;;;;12.07;1.33;;;5.80;99.90;;;;;;4983072;28;20037;-81
2022/04/08 07:09:19;;;;;;;9.93;1.17;;;5.90;99.90;;;;;;4993643;28;20026;-82
2022/04/08 07:11:46;;;;;;;5.82;0.98;;;6.00;99.90;;;;;;4986100;28;20049;-81
2022/04/08 07:14:12;;;;;;;11.43;1.20;;;6.10;99.90;;;;;;4981479;28;20075;-81
2022/04/08 07:16:38;;;;;;;3.67;1.00;;;6.10;99.90;;;;;;4997583;28;20030;-81
2022/04/08 07:19:04;;;;;;;6.53;1.73;;;6.20;99.90;;;;;;4991703;28;20077;-81
2022/04/08 07:21:29;;;;;;;8.50;1.20;;;6.30;99.90;;;;;;4996861;28;20038;-81
2022/04/08 07:23:55;;;;;;;5.32;0.90;;;6.40;99.90;;;;;;4976401;28;20022;-81
2022/04/08 07:26:21;;;;;;;9.25;1.23;;;6.40;99.90;;;;;;4963809;28;20380;-81
2022/04/08 07:28:47;;;;;;;6.55;0.70;;;6.50;99.90;;;;;;4987826;28;20035;-81
2022/04/08 07:31:13;;;;;;;10.57;0.90;;;6.60;99.90;;;;;;4992854;28;20063;-82
2022/04/08 07:33:39;;;;;;;5.57;0.90;;;6.60;99.90;;;;;;4993667;28;20062;-82
2022/04/08 07:36:05;;;;;;;2.70;0.60;;;6.60;99.90;;;;;;4992889;28;20034;-82
2022/04/08 07:38:31;;;;;;;7.82;1.20;;;6.70;99.90;;;;;;4987547;28;20033;-81
2022/04/08 07:41:00;;;;;;;5.82;1.02;;;6.70;99.90;;;;;;4986237;28;20031;-82
2022/04/08 07:43:25;;;;;;;6.60;1.20;;;6.80;99.90;;;;;;4998248;28;20117;-82
2022/04/08 07:45:51;;;;;;;4.10;1.33;;;6.90;99.90;;;;;;4990890;28;20097;-80
2022/04/08 07:48:17;;;;;;;21.73;1.73;;;7.00;99.90;;;;;;4993585;28;20046;-80
2022/04/08 07:50:42;;;;;;;7.97;1.23;;;7.00;99.90;;;;;;4991910;28;20062;-80
2022/04/08 07:53:08;;;;;;;7.53;1.63;;;7.10;99.90;;;;;;4991639;28;20113;-80
2022/04/08 07:55:34;;;;;;;6.53;1.27;;;7.20;99.90;;;;;;4998980;28;20057;-80
2022/04/08 07:57:59;;;;;;;6.13;1.35;;;7.20;99.90;;;;;;4992245;28;20530;-80
2022/04/08 08:00:27;;;;;;;5.95;1.27;;;7.20;99.90;;;;;;4989523;28;20022;-80
2022/04/08 08:02:53;;;;;;;8.93;1.60;;;7.20;99.90;;;;;;4992109;28;20426;-80
2022/04/08 08:05:20;;;;;;;5.85;1.40;;;7.20;99.90;;;;;;4992581;28;20030;-81
2022/04/08 08:07:47;;;;;;;4.60;1.27;;;7.20;99.90;;;;;;4993113;28;20046;-81
2022/04/08 08:10:30;;;;;;;7.88;2.03;;;7.30;99.90;;;;;;4973754;28;20477;-81
2022/04/08 08:12:57;;;;;;;10.10;2.15;;;7.40;99.90;;;;;;4996370;28;20045;-81
2022/04/08 08:15:24;;;;;;;6.72;1.98;;;7.40;99.90;;;;;;4996078;28;20028;-81
2022/04/08 08:17:50;;;;;;;4.07;1.65;;;7.50;99.90;;;;;;5004234;28;20030;-81
2022/04/08 08:20:18;;;;;;;7.10;1.85;;;7.50;99.90;;;;;;4975224;28;20433;-81
2022/04/08 08:22:43;;;;;;;9.27;2.10;;;7.60;99.90;;;;;;4993122;28;20027;-81
2022/04/08 08:25:11;;;;;;;6.28;1.90;;;7.60;99.90;;;;;;4998211;28;20062;-81
2022/04/08 08:27:47;;;;;;;8.18;1.70;;;7.70;99.90;;;;;;5002012;28;20552;-81
2022/04/08 08:30:15;;;;;;;12.32;2.35;;;7.70;99.90;;;;;;4998527;28;20057;-81
2022/04/08 08:32:43;;;;;;;5.93;2.10;;;7.80;99.90;;;;;;4999791;28;20030;-81
2022/04/08 08:35:11;;;;;;;8.52;2.03;;;8.00;99.90;;;;;;4995092;28;20052;-81
2022/04/08 08:37:36;;;;;;;9.65;2.22;;;8.00;99.90;;;;;;4996627;28;20054;-81
2022/04/08 08:40:06;;;;;;;6.00;2.05;;;8.10;99.90;;;;;;5008361;28;20053;-81
2022/04/08 08:42:35;;;;;;;5.85;2.03;;;8.10;99.90;;;;;;4979129;28;20185;-81
2022/04/08 08:45:01;;;;;;;8.30;1.77;;;8.20;99.90;;;;;;4996604;28;20031;-81
2022/04/08 08:47:29;;;;;;;6.00;2.22;;;8.20;99.90;;;;;;5005764;28;20398;-81
2022/04/08 08:49:56;;;;;;;5.80;2.20;;;8.30;99.90;;;;;;4999673;28;20030;-81
2022/04/08 08:52:22;;;;;;;6.75;2.10;;;8.40;99.90;;;;;;5014517;28;20034;-81
2022/04/08 08:54:48;;;;;;;7.13;2.50;;;8.40;99.90;;;;;;4996755;28;20022;-81
2022/04/08 08:57:15;;;;;;;4.63;1.63;;;8.40;99.90;;;;;;4994753;28;20407;-81
2022/04/08 08:59:42;;;;;;;4.22;1.67;;;8.40;99.90;;;;;;4999956;28;20101;-81
2022/04/08 09:02:08;;;;;;;7.22;1.60;;;8.50;99.90;;;;;;5000640;28;20034;-81
2022/04/08 09:04:39;;;;;;;7.55;1.70;;;8.60;99.90;;;;;;4996678;28;20080;-81
2022/04/08 09:07:06;;;;;;;7.38;1.80;;;8.70;99.90;;;;;;4995790;28;20125;-81
2022/04/08 09:09:32;;;;;;;4.32;1.80;;;8.70;99.90;;;;;;4996675;28;20022;-81
2022/04/08 09:12:12;;;;;;;9.50;1.42;;;8.70;99.90;;;;;;4995467;28;20104;-82
2022/04/08 09:14:38;;;;;;;8.25;1.50;;;8.70;99.90;;;;;;4996036;28;20429;-81
2022/04/08 09:17:04;;;;;;;6.93;1.75;;;8.70;99.90;;;;;;5003383;28;20041;-80
2022/04/08 09:19:34;;;;;;;5.05;1.63;;;8.70;99.90;;;;;;4990699;28;20030;-80
2022/04/08 09:22:00;;;;;;;5.35;1.73;;;8.80;99.90;;;;;;5000077;28;20121;-80
2022/04/08 09:24:27;;;;;;;7.95;1.70;;;8.90;99.90;;;;;;4999771;28;20105;-80
2022/04/08 09:26:53;;;;;;;6.63;1.30;;;9.00;99.90;;;;;;4994314;28;20140;-80
2022/04/08 09:29:20;;;;;;;6.75;1.75;;;9.00;99.90;;;;;;4976780;28;20030;-81
2022/04/08 09:31:49;;;;;;;8.55;1.52;;;9.10;99.90;;;;;;4988298;28;20085;-81
2022/04/08 09:34:16;;;;;;;11.23;1.80;;;9.10;99.90;;;;;;4991127;28;20088;-81
2022/04/08 09:36:43;;;;;;;8.48;1.63;;;9.30;99.90;;;;;;4990048;28;20065;-81
2022/04/08 09:39:12;;;;;;;7.82;0.93;;;9.30;99.90;;;;;;4996498;28;20067;-81
2022/04/08 09:41:39;;;;;;;3.60;1.10;;;9.30;99.90;;;;;;4988198;28;20031;-81
2022/04/08 09:44:05;;;;;;;6.70;1.00;;;9.40;99.90;;;;;;4992005;28;20050;-82
2022/04/08 09:46:31;;;;;;;6.35;1.23;;;9.40;99.90;;;;;;4997610;28;20045;-81
2022/04/08 09:48:57;;;;;;;4.95;1.00;;;9.40;99.90;;;;;;5006149;28;20022;-81
2022/04/08 09:51:23;;;;;;;7.30;1.20;;;9.20;99.90;;;;;;4995199;28;20034;-80
2022/04/08 09:54:00;;;;;;;6.00;0.93;;;9.10;99.90;;;;;;4995109;28;20038;-82
2022/04/08 09:56:27;;;;;;;16.75;1.70;;;9.10;99.90;;;;;;4996022;28;20079;-81
2022/04/08 09:59:10;;;;;;;8.30;1.20;;;9.20;99.90;;;;;;4994734;28;20031;-80
2022/04/08 10:01:36;;;;;;;;;;;9.30;99.90;;;;;;4995263;28;20023;-80
2022/04/08 10:04:04;;;;;;;4.40;0.70;;;9.30;99.90;;;;;;4998134;28;19916;-81
2022/04/08 10:06:30;;;;;;;5.93;1.05;;;9.30;99.90;;;;;;4991572;28;20051;-81
2022/04/08 10:08:57;;;;;;;7.07;0.90;;;9.40;99.90;;;;;;4991647;28;20506;-80
2022/04/08 10:11:54;;;;;;;5.75;1.10;;;9.50;99.90;;;;;;4993660;28;20037;-80
2022/04/08 10:14:49;;;;;;;5.97;1.00;;;9.60;99.90;;;;;;4994929;28;20038;-80
2022/04/08 10:17:15;;;;;;;5.05;0.90;;;9.70;99.90;;;;;;4993718;28;20030;-80
2022/04/08 10:19:41;;;;;;;8.73;1.17;;;9.70;99.90;;;;;;4993760;28;22035;-80
2022/04/08 10:22:17;;;;;;;6.13;0.93;;;9.70;99.90;;;;;;4999593;28;20056;-80
2022/04/08 10:24:55;;;;;;;10.15;1.40;;;9.70;99.90;;;;;;5005477;28;20100;-80
2022/04/08 10:27:32;;;;;;;7.25;1.20;;;9.70;99.90;;;;;;4988781;28;20061;-80
2022/04/08 10:29:58;;;;;;;4.78;0.75;;;9.70;99.90;;;;;;4997266;28;20038;-80
2022/04/08 10:32:24;;;;;;;4.80;0.82;;;9.70;99.90;;;;;;4995780;28;20042;-80
2022/04/08 10:34:50;;;;;;;5.65;1.00;;;9.70;99.90;;;;;;4992177;28;20081;-80
2022/04/08 10:37:17;;;;;;;6.72;1.30;;;9.70;99.90;;;;;;5000034;28;20056;-80
2022/04/08 10:39:58;;;;;;;7.20;1.30;;;9.80;99.90;;;;;;4992157;28;20030;-81
2022/04/08 10:42:24;;;;;;;6.80;1.20;;;9.80;99.90;;;;;;4998421;28;20101;-81
2022/04/08 10:44:50;;;;;;;5.63;1.20;;;9.70;99.90;;;;;;4991952;28;20169;-80
2022/04/08 10:47:18;;;;;;;5.82;1.27;;;9.60;99.90;;;;;;4988222;28;20470;-80
2022/04/08 10:49:49;;;;;;;11.13;1.67;;;9.60;99.90;;;;;;4991344;28;20038;-80
2022/04/08 10:52:17;;;;;;;11.57;1.27;;;9.60;99.90;;;;;;4995605;28;20046;-80
2022/04/08 10:54:42;;;;;;;3.72;1.00;;;9.60;99.90;;;;;;4990039;28;20024;-82
2022/04/08 10:57:08;;;;;;;7.05;1.17;;;9.70;99.90;;;;;;4989975;28;20441;-82
2022/04/08 10:59:33;;;;;;;8.98;1.77;;;9.80;99.90;;;;;;4994472;28;21302;-82
2022/04/08 11:02:05;;;;;;;7.97;1.40;;;10.00;99.90;;;;;;4990288;28;20073;-79
2022/04/08 11:04:32;;;;;;;6.85;1.38;;;10.00;99.90;;;;;;4988469;28;20037;-80
2022/04/08 11:07:05;;;;;;;5.03;1.13;;;10.00;99.90;;;;;;4990256;28;20067;-79
2022/04/08 11:09:31;;;;;;;8.85;1.60;;;10.10;99.90;;;;;;4991410;28;20041;-80
2022/04/08 11:11:57;;;;;;;4.82;1.52;;;10.20;99.90;;;;;;4970975;28;20068;-79
2022/04/08 11:14:22;;;;;;;6.30;1.80;;;10.20;99.40;;;;;;4990876;28;20066;-80
2022/04/08 11:16:52;;;;;;;8.48;1.48;;;10.20;99.90;;;;;;4991013;28;20030;-82
2022/04/08 11:19:20;;;;;;;4.50;1.27;;;10.20;99.90;;;;;;4989369;28;20054;-80
2022/04/08 11:21:47;;;;;;;7.47;1.13;;;10.30;99.70;;;;;;4985672;28;20475;-80
2022/04/08 11:24:15;;;;;;;6.88;1.20;;;10.40;99.10;;;;;;4986879;28;20038;-79
2022/04/08 11:26:47;;;;;;;8.27;1.20;;;10.20;98.10;;;;;;4990081;28;20034;-81
2022/04/08 11:29:16;;;;;;;8.30;1.13;;;10.30;98.50;;;;;;4994192;28;20091;-80
2022/04/08 11:31:42;;;;;;;9.05;1.23;;;10.20;98.80;;;;;;4993689;28;20517;-80
2022/04/08 11:34:08;;;;;;;7.25;1.55;;;10.30;98.70;;;;;;4993007;28;20060;-81
2022/04/08 11:36:35;;;;;;;6.75;1.05;;;10.30;98.50;;;;;;4989384;28;20073;-80
2022/04/08 11:39:02;;;;;;;4.60;1.40;;;10.40;98.80;;;;;;4989834;28;20053;-81
2022/04/08 11:41:28;;;;;;;7.85;1.25;;;10.50;98.50;;;;;;4992783;28;20176;-81
2022/04/08 11:43:54;;;;;;;5.88;0.85;;;10.50;98.20;;;;;;4991377;28;20105;-81
2022/04/08 11:46:20;;;;;;;8.27;1.48;;;10.40;98.50;;;;;;4984057;28;20063;-82
2022/04/08 11:48:46;;;;;;;9.43;2.22;;;10.40;98.40;;;;;;4986237;28;20049;-82
2022/04/08 11:51:12;;;;;;;5.07;0.90;;;10.50;98.40;;;;;;4972362;28;20453;-82
2022/04/08 11:53:43;;;;;;;5.97;1.17;;;10.50;97.90;;;;;;4988663;28;20045;-82
2022/04/08 11:56:09;;;;;;;8.07;1.40;;;10.50;97.30;;;;;;4986236;28;20513;-82
2022/04/08 11:58:35;;;;;;;5.97;1.25;;;10.60;97.50;;;;;;4990215;28;20037;-79
2022/04/08 12:01:01;;;;;;;7.22;1.85;;;10.80;97.50;;;;;;4984921;28;20077;-79
2022/04/08 12:03:29;;;;;;;4.20;1.50;;;10.70;97.70;;;;;;4992843;28;20406;-80
2022/04/08 12:05:56;;;;;;;6.15;1.20;;;10.70;97.50;;;;;;4988733;28;20022;-80
2022/04/08 12:08:22;;;;;;;3.85;1.08;;;10.70;97.50;;;;;;4990421;28;20034;-80
2022/04/08 12:10:53;;;;;;;4.00;0.90;;;10.60;97.30;;;;;;4991680;28;20070;-80
2022/04/08 12:13:21;;;;;;;8.65;1.33;;;10.40;97.10;;;;;;4988939;28;20080;-79
2022/04/08 12:15:49;;;;;;;8.05;0.90;;;10.30;97.00;;;;;;4987592;28;20570;-80
2022/04/08 12:18:25;;;;;;;6.35;0.90;;;10.20;97.10;;;;;;4987452;28;20433;-80
2022/04/08 12:20:53;;;;;;;7.68;1.35;;;10.10;97.40;;;;;;4972584;28;20167;-81
2022/04/08 12:23:24;;;;;;;6.03;1.38;;;10.10;97.50;;;;;;4984266;28;20030;-79
2022/04/08 12:25:54;;;;;;;7.80;1.27;;;10.00;97.50;;;;;;4987218;28;20037;-80
2022/04/08 12:28:30;;;;;;;3.67;1.00;;;10.00;97.60;;;;;;4988646;28;20053;-80
2022/04/08 12:30:55;;;;;;;9.18;1.70;;;10.00;97.10;;;;;;4985310;28;20035;-80
2022/04/08 12:33:21;;;;;;;7.00;1.08;;;9.90;97.50;;;;;;4985863;28;20046;-79
2022/04/08 12:35:47;;;;;;;11.70;1.25;;;10.00;98.00;;;;;;4989854;28;20022;-81
2022/04/08 12:38:19;;;;;;;7.00;0.95;;;10.00;98.10;;;;;;4986908;28;20038;-80
2022/04/08 12:40:45;;;;;;;7.07;0.90;;;10.00;98.10;;;;;;4988590;28;20397;-79
2022/04/08 12:43:11;;;;;;;4.05;1.08;;;10.10;98.00;;;;;;4988637;28;20088;-80
2022/04/08 12:45:36;;;;;;;4.20;0.90;;;10.20;98.00;;;;;;4987190;28;20529;-79
2022/04/08 12:48:02;;;;;;;3.78;0.95;;;10.20;98.10;;;;;;4987270;28;20030;-79
2022/04/08 12:50:28;;;;;;;11.65;1.48;;;10.30;97.70;;;;;;4983605;28;20034;-80